Metar z połowy godziny Komunikat METAR ze strony awiacja.imgw.pl Metar G00 EPLB METAR EPLB 211630Z 13004KT CAVOK 26/14 Q1015 =